Time;durP1;ratioP1;P1;durP2;ratioP2;P2;SDS_P1;SDS_P2;PMS_P1;PMS_P2;Temp;Humidity;BMP_temperature;BMP_pressure;BME280_temperature;BME280_humidity;BME280_pressure;Samples;Min_cycle;Max_cycle;Signal;HPM_P1;HPM_P2
2024/01/31 00:02:22;;;;;;;14.00;13.50;;;9.00;99.90;;;;;;5071335;28;20218;-61
2024/01/31 00:04:49;;;;;;;14.17;13.67;;;9.00;99.90;;;;;;5070311;28;20591;-61
2024/01/31 00:07:16;;;;;;;14.77;14.27;;;9.00;99.90;;;;;;5071582;28;20228;-61
2024/01/31 00:09:44;;;;;;;14.83;14.33;;;9.00;99.90;;;;;;5071982;28;20702;-61
2024/01/31 00:12:10;;;;;;;15.23;14.63;;;9.00;99.90;;;;;;5070954;28;20298;-62
2024/01/31 00:14:37;;;;;;;14.63;14.13;;;9.00;99.90;;;;;;5071510;28;20662;-60
2024/01/31 00:17:04;;;;;;;14.87;14.37;;;9.00;99.90;;;;;;5070387;28;20227;-61
2024/01/31 00:19:31;;;;;;;14.37;13.87;;;9.00;99.90;;;;;;5071779;28;20214;-61
2024/01/31 00:21:58;;;;;;;14.13;13.63;;;9.10;99.90;;;;;;5070626;28;20669;-60
2024/01/31 00:24:24;;;;;;;14.70;14.20;;;9.10;99.90;;;;;;5071083;28;20723;-61
2024/01/31 00:26:52;;;;;;;14.73;14.23;;;9.00;99.90;;;;;;5071266;28;20235;-61
2024/01/31 00:29:19;;;;;;;13.10;12.60;;;9.10;99.90;;;;;;5071136;28;20200;-61
2024/01/31 00:31:46;;;;;;;14.27;13.77;;;9.00;99.90;;;;;;5070328;28;20210;-61
2024/01/31 00:34:13;;;;;;;14.23;13.73;;;9.00;99.90;;;;;;5070069;28;20210;-61
2024/01/31 00:36:39;;;;;;;15.43;14.83;;;9.00;99.90;;;;;;5070663;28;20230;-61
2024/01/31 00:39:07;;;;;;;14.43;13.93;;;9.00;99.90;;;;;;5070768;28;20619;-61
2024/01/31 00:41:34;;;;;;;14.70;14.20;;;9.00;99.90;;;;;;5068221;28;20230;-62
2024/01/31 00:44:02;;;;;;;14.20;13.70;;;9.00;99.90;;;;;;5071063;28;20227;-61
2024/01/31 00:46:28;;;;;;;14.00;13.50;;;9.00;99.90;;;;;;5070648;28;20207;-60
2024/01/31 00:48:55;;;;;;;14.40;13.90;;;9.00;99.90;;;;;;5070475;28;20214;-61
2024/01/31 00:51:22;;;;;;;14.03;13.53;;;9.00;99.90;;;;;;5070409;28;20203;-61
2024/01/31 00:53:48;;;;;;;14.57;14.07;;;9.10;99.90;;;;;;5070729;28;20210;-61
2024/01/31 00:56:15;;;;;;;15.60;15.00;;;9.10;99.90;;;;;;5070508;28;20201;-62
2024/01/31 00:58:42;;;;;;;15.50;14.90;;;9.10;99.90;;;;;;5070598;28;20203;-63
2024/01/31 01:01:10;;;;;;;16.17;15.57;;;9.10;99.90;;;;;;5071147;28;20203;-62
2024/01/31 01:03:36;;;;;;;14.27;13.77;;;9.10;99.90;;;;;;5071683;28;20222;-60
2024/01/31 01:06:04;;;;;;;14.73;14.23;;;9.10;99.90;;;;;;5072923;28;20206;-61
2024/01/31 01:08:31;;;;;;;13.93;13.43;;;9.10;99.90;;;;;;5071632;28;20255;-60
2024/01/31 01:10:58;;;;;;;15.00;14.50;;;9.10;99.90;;;;;;5067641;28;20210;-62
2024/01/31 01:13:24;;;;;;;14.23;13.73;;;9.10;99.90;;;;;;5070774;28;20673;-61
2024/01/31 01:15:51;;;;;;;13.87;13.37;;;9.10;99.90;;;;;;5071226;28;20221;-63
2024/01/31 01:18:19;;;;;;;14.47;13.97;;;9.10;99.90;;;;;;5070488;28;20731;-60
2024/01/31 01:20:46;;;;;;;15.02;14.52;;;9.10;99.90;;;;;;5070618;28;20218;-60
2024/01/31 01:23:15;;;;;;;14.37;13.87;;;9.10;99.90;;;;;;5071019;28;20217;-60
2024/01/31 01:25:41;;;;;;;13.87;13.27;;;9.10;99.90;;;;;;5079731;28;20211;-61
2024/01/31 01:28:08;;;;;;;13.68;13.18;;;9.00;99.90;;;;;;5080496;28;20223;-61
2024/01/31 01:30:35;;;;;;;14.70;14.20;;;9.10;99.90;;;;;;5078825;28;20552;-62
2024/01/31 01:33:01;;;;;;;14.18;13.68;;;9.10;99.90;;;;;;5075677;28;20203;-62
2024/01/31 01:35:30;;;;;;;13.80;13.30;;;9.10;99.90;;;;;;5076488;28;20210;-60
2024/01/31 01:37:56;;;;;;;15.20;14.63;;;9.10;99.90;;;;;;5071361;28;20583;-62
2024/01/31 01:40:23;;;;;;;14.33;13.83;;;9.10;99.90;;;;;;5070749;28;20211;-60
2024/01/31 01:42:50;;;;;;;14.77;14.27;;;9.10;99.90;;;;;;5070349;28;20199;-60
2024/01/31 01:45:16;;;;;;;14.53;14.03;;;9.10;99.90;;;;;;5070938;28;20222;-60
2024/01/31 01:47:48;;;;;;;14.20;13.70;;;9.10;99.90;;;;;;5071109;28;20231;-61
2024/01/31 01:50:15;;;;;;;14.07;13.57;;;9.10;99.90;;;;;;5069249;28;20214;-60
2024/01/31 01:52:43;;;;;;;14.07;13.57;;;9.10;99.90;;;;;;5069748;28;20203;-61
2024/01/31 01:55:10;;;;;;;14.93;14.43;;;9.10;99.90;;;;;;5070287;28;20214;-61
2024/01/31 01:57:38;;;;;;;13.50;13.00;;;9.20;99.90;;;;;;5070159;28;20219;-60
2024/01/31 02:00:08;;;;;;;13.77;13.27;;;9.20;99.90;;;;;;5070497;28;20286;-63
2024/01/31 02:02:35;;;;;;;13.57;13.07;;;9.20;99.90;;;;;;5067772;28;20261;-62
2024/01/31 02:05:02;;;;;;;13.57;13.07;;;9.20;99.90;;;;;;5070003;28;20231;-60
2024/01/31 02:07:29;;;;;;;13.93;13.43;;;9.20;99.90;;;;;;5069603;28;20223;-61
2024/01/31 02:09:59;;;;;;;14.43;13.93;;;9.30;99.90;;;;;;5069943;28;20211;-60
2024/01/31 02:12:25;;;;;;;13.67;13.17;;;9.20;99.90;;;;;;5071128;28;20214;-61
2024/01/31 02:14:53;;;;;;;13.63;13.13;;;9.20;99.90;;;;;;5072538;28;20496;-62
2024/01/31 02:17:19;;;;;;;13.77;13.27;;;9.30;99.90;;;;;;5070056;28;20257;-61
2024/01/31 02:19:46;;;;;;;14.00;13.50;;;9.20;99.90;;;;;;5069805;28;20203;-61
2024/01/31 02:22:18;;;;;;;14.50;14.00;;;9.20;99.90;;;;;;5069209;28;20203;-61
2024/01/31 02:24:44;;;;;;;14.37;13.87;;;9.10;99.90;;;;;;5069416;28;20251;-60
2024/01/31 02:27:12;;;;;;;14.30;13.80;;;9.10;99.90;;;;;;5069527;28;20606;-62
2024/01/31 02:29:39;;;;;;;14.60;14.10;;;9.10;99.90;;;;;;5071519;28;20203;-61
2024/01/31 02:32:07;;;;;;;14.10;13.60;;;9.10;99.90;;;;;;5070079;28;20212;-61
2024/01/31 02:34:34;;;;;;;13.70;13.20;;;9.20;99.90;;;;;;5067963;28;20203;-61
2024/01/31 02:37:01;;;;;;;13.97;13.40;;;9.20;99.90;;;;;;5067792;28;20609;-61
2024/01/31 02:39:30;;;;;;;13.47;12.97;;;9.20;99.90;;;;;;5070407;28;20298;-61
2024/01/31 02:41:57;;;;;;;14.00;13.50;;;9.20;99.90;;;;;;5069204;28;20215;-61
2024/01/31 02:44:24;;;;;;;14.60;14.10;;;9.20;99.90;;;;;;5069795;28;20258;-60
2024/01/31 02:46:51;;;;;;;14.53;14.03;;;9.20;99.90;;;;;;5077532;28;20223;-60
2024/01/31 02:49:17;;;;;;;15.23;14.70;;;9.10;99.90;;;;;;5078332;28;20211;-60
2024/01/31 02:51:44;;;;;;;14.50;14.00;;;9.20;99.90;;;;;;5073139;28;20238;-62
2024/01/31 02:54:11;;;;;;;15.80;15.20;;;9.10;99.90;;;;;;5066754;28;20210;-61
2024/01/31 02:56:39;;;;;;;16.37;15.77;;;9.10;99.90;;;;;;5067375;28;20234;-62
2024/01/31 02:59:06;;;;;;;15.27;14.77;;;9.10;99.90;;;;;;5072015;28;20207;-61
2024/01/31 03:01:33;;;;;;;15.20;14.70;;;9.10;99.90;;;;;;5072622;28;20210;-62
2024/01/31 03:03:59;;;;;;;15.80;15.20;;;9.10;99.90;;;;;;5070750;28;20219;-62
2024/01/31 03:06:26;;;;;;;16.10;15.50;;;9.10;99.90;;;;;;5073202;28;20680;-61
2024/01/31 03:08:53;;;;;;;16.50;15.90;;;9.10;99.90;;;;;;5073346;28;20199;-60
2024/01/31 03:11:20;;;;;;;16.23;15.67;;;9.10;99.90;;;;;;5070910;28;20210;-60
2024/01/31 03:13:50;;;;;;;15.37;14.87;;;9.10;99.90;;;;;;5073511;28;20203;-60
2024/01/31 03:16:17;;;;;;;16.10;15.50;;;9.20;99.90;;;;;;5072772;28;20199;-61
2024/01/31 03:18:43;;;;;;;14.90;14.40;;;9.20;99.90;;;;;;5071604;28;20497;-60
2024/01/31 03:21:10;;;;;;;15.87;15.27;;;9.20;99.90;;;;;;5072317;28;20215;-61
2024/01/31 03:23:37;;;;;;;14.00;13.50;;;9.20;99.90;;;;;;5072915;28;20203;-61
2024/01/31 03:26:04;;;;;;;14.10;13.60;;;9.20;99.90;;;;;;5072746;28;20222;-62
2024/01/31 03:28:32;;;;;;;13.97;13.47;;;9.30;99.90;;;;;;5072627;28;20223;-60
2024/01/31 03:31:00;;;;;;;14.13;13.63;;;9.30;99.90;;;;;;5072147;28;20223;-60
2024/01/31 03:33:27;;;;;;;13.88;13.38;;;9.40;99.90;;;;;;5072428;28;20208;-61
2024/01/31 03:35:54;;;;;;;14.27;13.67;;;9.40;99.90;;;;;;5072436;28;20706;-60
2024/01/31 03:38:20;;;;;;;14.13;13.63;;;9.40;99.90;;;;;;5071031;28;20227;-60
2024/01/31 03:40:47;;;;;;;14.07;13.57;;;9.30;99.90;;;;;;5072667;28;20195;-60
2024/01/31 03:43:14;;;;;;;14.03;13.53;;;9.30;99.90;;;;;;5071782;28;20416;-61
2024/01/31 03:45:41;;;;;;;14.20;13.70;;;9.30;99.90;;;;;;5072514;28;20246;-61
2024/01/31 03:48:09;;;;;;;13.67;13.17;;;9.40;99.90;;;;;;5072389;28;20246;-60
2024/01/31 03:50:35;;;;;;;13.80;13.30;;;9.40;99.90;;;;;;5071076;28;20199;-61
2024/01/31 03:53:02;;;;;;;14.30;13.70;;;9.40;99.90;;;;;;5070084;28;20218;-60
2024/01/31 03:55:29;;;;;;;14.82;14.23;;;9.40;99.90;;;;;;5072152;28;20201;-61
2024/01/31 03:57:55;;;;;;;13.77;13.27;;;9.50;99.90;;;;;;5071884;28;20234;-61
2024/01/31 04:00:23;;;;;;;13.97;13.47;;;9.50;99.90;;;;;;5072623;28;20222;-60
2024/01/31 04:02:49;;;;;;;13.83;13.33;;;9.50;99.90;;;;;;5070715;28;20203;-61
2024/01/31 04:05:17;;;;;;;12.93;12.53;;;9.50;99.90;;;;;;5071871;28;20223;-60
2024/01/31 04:07:44;;;;;;;13.83;13.33;;;9.50;99.90;;;;;;5071962;28;20231;-62
2024/01/31 04:10:11;;;;;;;14.27;13.77;;;9.50;99.90;;;;;;5070868;28;20230;-60
2024/01/31 04:12:38;;;;;;;14.70;14.20;;;9.50;99.90;;;;;;5069513;28;20199;-62
2024/01/31 04:15:05;;;;;;;13.23;12.73;;;9.50;99.90;;;;;;5071797;28;20207;-61
2024/01/31 04:17:32;;;;;;;14.33;13.83;;;9.40;99.90;;;;;;5071596;28;20238;-60
2024/01/31 04:19:59;;;;;;;14.27;13.77;;;9.50;99.90;;;;;;5069130;28;20203;-63
2024/01/31 04:22:27;;;;;;;14.27;13.77;;;9.50;99.90;;;;;;5071036;28;20203;-62
2024/01/31 04:24:54;;;;;;;14.10;13.60;;;9.50;99.90;;;;;;5071373;28;20238;-60
2024/01/31 04:27:20;;;;;;;14.33;13.83;;;9.50;99.90;;;;;;5070256;28;20235;-61
2024/01/31 04:29:48;;;;;;;14.50;14.00;;;9.50;99.90;;;;;;5071302;28;20199;-62
2024/01/31 04:32:15;;;;;;;14.37;13.87;;;9.50;99.90;;;;;;5071148;28;20694;-61
2024/01/31 04:34:42;;;;;;;14.70;14.20;;;9.50;99.90;;;;;;5071923;28;20215;-61
2024/01/31 04:37:09;;;;;;;14.10;13.60;;;9.40;99.90;;;;;;5081362;28;20227;-60
2024/01/31 04:39:37;;;;;;;14.40;13.90;;;9.40;99.90;;;;;;5086187;28;20222;-61
2024/01/31 04:42:04;;;;;;;14.80;14.30;;;9.50;99.90;;;;;;5088193;28;20207;-61
2024/01/31 04:44:32;;;;;;;14.27;13.77;;;9.50;99.90;;;;;;5088498;28;20223;-61
2024/01/31 04:46:59;;;;;;;14.10;13.60;;;9.40;99.90;;;;;;5087617;28;20223;-61
2024/01/31 04:49:26;;;;;;;13.60;13.10;;;9.50;99.90;;;;;;5087333;28;20680;-61
2024/01/31 04:51:52;;;;;;;13.33;12.83;;;9.50;99.90;;;;;;5087767;28;20203;-60
2024/01/31 04:54:18;;;;;;;14.25;13.75;;;9.40;99.90;;;;;;5087226;28;20710;-61
2024/01/31 04:56:46;;;;;;;14.30;13.80;;;9.40;99.90;;;;;;5073938;28;20233;-62
2024/01/31 04:59:13;;;;;;;14.60;14.10;;;9.40;99.90;;;;;;5073231;28;20211;-61
2024/01/31 05:01:39;;;;;;;15.13;14.53;;;9.40;99.90;;;;;;5071069;28;20673;-62
2024/01/31 05:04:06;;;;;;;14.37;13.87;;;9.40;99.90;;;;;;5073393;28;20210;-61
2024/01/31 05:06:33;;;;;;;15.20;14.67;;;9.40;99.90;;;;;;5074330;28;20227;-60
2024/01/31 05:09:00;;;;;;;14.67;14.17;;;9.40;99.90;;;;;;5070776;28;20207;-61
2024/01/31 05:11:26;;;;;;;15.30;14.80;;;9.40;99.90;;;;;;5074441;28;20207;-61
2024/01/31 05:13:54;;;;;;;14.63;14.13;;;9.40;99.90;;;;;;5073776;28;20211;-60
2024/01/31 05:16:21;;;;;;;15.37;14.87;;;9.40;99.90;;;;;;5071765;28;20283;-62
2024/01/31 05:18:48;;;;;;;14.57;14.07;;;9.40;99.90;;;;;;5071926;28;20207;-60
2024/01/31 05:21:15;;;;;;;15.50;14.90;;;9.50;99.90;;;;;;5070949;28;20309;-60
2024/01/31 05:23:41;;;;;;;14.23;13.73;;;9.50;99.90;;;;;;5069556;28;20670;-60
2024/01/31 05:26:09;;;;;;;14.40;13.90;;;9.50;99.90;;;;;;5070238;28;20219;-60
2024/01/31 05:28:35;;;;;;;14.23;13.63;;;9.60;99.90;;;;;;5070289;28;20298;-62
2024/01/31 05:31:04;;;;;;;15.50;14.95;;;9.60;99.90;;;;;;5065035;28;20211;-60
2024/01/31 05:33:31;;;;;;;14.10;13.60;;;9.60;99.90;;;;;;5070704;28;20256;-60
2024/01/31 05:35:59;;;;;;;14.10;13.60;;;9.60;99.90;;;;;;5070884;28;20207;-61
2024/01/31 05:38:25;;;;;;;14.10;13.60;;;9.60;99.90;;;;;;5070436;28;20753;-62
2024/01/31 05:40:52;;;;;;;14.82;14.32;;;9.60;99.90;;;;;;5070751;28;20210;-60
2024/01/31 05:43:19;;;;;;;14.90;14.40;;;9.60;99.90;;;;;;5069779;28;20689;-62
2024/01/31 05:45:45;;;;;;;15.30;14.73;;;9.60;99.90;;;;;;5070681;28;20215;-62
2024/01/31 05:48:14;;;;;;;14.13;13.63;;;9.50;99.90;;;;;;5068674;28;20220;-60
2024/01/31 05:50:41;;;;;;;14.70;14.20;;;9.40;99.90;;;;;;5071206;28;20249;-62
2024/01/31 05:53:07;;;;;;;14.80;14.30;;;9.40;99.90;;;;;;5069797;28;20214;-66
2024/01/31 05:55:34;;;;;;;14.40;13.90;;;9.40;99.90;;;;;;5068620;28;20644;-65
2024/01/31 05:58:01;;;;;;;14.23;13.73;;;9.40;99.90;;;;;;5068085;28;20223;-65
2024/01/31 06:00:27;;;;;;;15.10;14.50;;;9.40;99.90;;;;;;5070687;28;20230;-65
2024/01/31 06:02:54;;;;;;;14.47;13.87;;;9.50;99.90;;;;;;5068051;28;20484;-65
2024/01/31 06:05:23;;;;;;;15.07;14.57;;;9.50;99.90;;;;;;5070568;28;20219;-66
2024/01/31 06:07:49;;;;;;;14.37;13.87;;;9.50;99.90;;;;;;5071422;28;20230;-65
2024/01/31 06:10:16;;;;;;;14.87;14.37;;;9.40;99.90;;;;;;5082241;28;20208;-65
2024/01/31 06:12:43;;;;;;;14.82;14.32;;;9.40;99.90;;;;;;5080223;28;20199;-66
2024/01/31 06:15:10;;;;;;;15.20;14.67;;;9.40;99.90;;;;;;5067288;28;20281;-66
2024/01/31 06:17:38;;;;;;;14.23;13.73;;;9.40;99.90;;;;;;5070413;28;20219;-64
2024/01/31 06:20:06;;;;;;;14.37;13.87;;;9.40;99.90;;;;;;5070831;28;20203;-66
2024/01/31 06:22:34;;;;;;;14.57;14.07;;;9.30;99.90;;;;;;5069235;28;20214;-65
2024/01/31 06:25:01;;;;;;;14.23;13.73;;;9.20;99.90;;;;;;5067819;28;20246;-65
2024/01/31 06:27:28;;;;;;;14.82;14.32;;;9.10;99.90;;;;;;5072773;28;20284;-65
2024/01/31 06:29:55;;;;;;;14.93;14.37;;;9.10;99.90;;;;;;5076752;28;20582;-67
2024/01/31 06:32:30;;;;;;;14.60;14.10;;;9.20;99.90;;;;;;5074990;28;20282;-65
2024/01/31 06:34:57;;;;;;;14.30;13.80;;;9.20;99.90;;;;;;5070709;28;20198;-66
2024/01/31 06:37:24;;;;;;;14.55;14.05;;;9.20;99.90;;;;;;5073483;28;20235;-66
2024/01/31 06:39:52;;;;;;;14.37;13.87;;;9.30;99.90;;;;;;5070176;28;20623;-66
2024/01/31 06:42:18;;;;;;;14.30;13.80;;;9.40;99.90;;;;;;5071454;28;20199;-65
2024/01/31 06:44:45;;;;;;;14.60;14.10;;;9.40;99.90;;;;;;5073070;28;20661;-65
2024/01/31 06:47:12;;;;;;;14.67;14.17;;;9.40;99.90;;;;;;5072995;28;20222;-66
2024/01/31 06:49:39;;;;;;;14.48;13.98;;;9.50;99.90;;;;;;5073511;28;20196;-65
2024/01/31 06:52:06;;;;;;;14.40;13.90;;;9.50;99.90;;;;;;5072511;28;20204;-66
2024/01/31 06:54:33;;;;;;;13.90;13.40;;;9.50;99.90;;;;;;5074469;28;20199;-65
2024/01/31 06:57:01;;;;;;;14.57;14.07;;;9.50;99.90;;;;;;5081884;28;20223;-66
2024/01/31 06:59:28;;;;;;;14.50;13.87;;;9.50;99.90;;;;;;5087363;28;20206;-66
2024/01/31 07:01:54;;;;;;;14.27;13.77;;;9.50;99.90;;;;;;5087529;28;20315;-66
2024/01/31 07:04:21;;;;;;;14.60;14.10;;;9.50;99.90;;;;;;5088104;28;20204;-65
2024/01/31 07:06:48;;;;;;;13.90;13.40;;;9.50;99.90;;;;;;5088194;28;20220;-65
2024/01/31 07:09:14;;;;;;;14.50;14.00;;;9.50;99.90;;;;;;5088897;28;20229;-65
2024/01/31 07:11:41;;;;;;;14.73;14.23;;;9.50;99.90;;;;;;5086748;28;20216;-66
2024/01/31 07:14:09;;;;;;;14.63;14.13;;;9.40;99.90;;;;;;5082015;28;20214;-65
2024/01/31 07:16:36;;;;;;;14.07;13.57;;;9.40;99.90;;;;;;5083524;28;20230;-64
2024/01/31 07:19:03;;;;;;;14.40;13.90;;;9.40;99.90;;;;;;5083444;28;20204;-65
2024/01/31 07:21:30;;;;;;;14.60;14.10;;;9.50;99.90;;;;;;5081591;28;20196;-65
2024/01/31 07:23:57;;;;;;;14.87;14.37;;;9.50;99.90;;;;;;5083817;28;20211;-65
2024/01/31 07:26:25;;;;;;;14.95;14.45;;;9.50;99.90;;;;;;5083866;28;20219;-64
2024/01/31 07:28:52;;;;;;;14.57;14.07;;;9.40;99.90;;;;;;5081255;28;20215;-66
2024/01/31 07:31:21;;;;;;;15.73;15.20;;;9.50;99.90;;;;;;5074499;28;20208;-65
2024/01/31 07:33:48;;;;;;;15.13;14.63;;;9.50;99.90;;;;;;5073560;28;20664;-66
2024/01/31 07:36:15;;;;;;;14.97;14.47;;;9.50;99.90;;;;;;5074363;28;20215;-65
2024/01/31 07:38:43;;;;;;;15.93;15.33;;;9.40;99.90;;;;;;5074085;28;20651;-66
2024/01/31 07:41:10;;;;;;;15.90;15.30;;;9.50;99.90;;;;;;5074395;28;20207;-64
2024/01/31 07:43:37;;;;;;;15.75;15.15;;;9.50;99.90;;;;;;5074497;28;20210;-64
2024/01/31 07:46:04;;;;;;;16.43;15.83;;;9.50;99.90;;;;;;5074600;28;20233;-64
2024/01/31 07:48:32;;;;;;;15.40;14.90;;;9.50;99.90;;;;;;5074532;28;20622;-65
2024/01/31 07:50:59;;;;;;;15.37;14.87;;;9.50;99.90;;;;;;5072658;28;20685;-65
2024/01/31 07:53:26;;;;;;;15.47;14.90;;;9.50;99.90;;;;;;5073393;28;20644;-64
2024/01/31 07:55:52;;;;;;;15.33;14.73;;;9.50;99.90;;;;;;5075165;28;20199;-65
2024/01/31 07:58:19;;;;;;;15.40;14.88;;;9.50;99.90;;;;;;5074704;28;20227;-66
2024/01/31 08:00:46;;;;;;;14.90;14.37;;;9.50;99.90;;;;;;5073280;28;20199;-66
2024/01/31 08:03:13;;;;;;;15.55;15.00;;;9.60;99.90;;;;;;5072641;28;20199;-66
2024/01/31 08:05:41;;;;;;;15.38;14.82;;;9.60;99.90;;;;;;5073303;28;20717;-66
2024/01/31 08:08:08;;;;;;;15.27;14.67;;;9.60;99.90;;;;;;5073021;28;20223;-64
2024/01/31 08:10:34;;;;;;;16.30;15.70;;;9.50;99.90;;;;;;5071746;28;20207;-65
2024/01/31 08:13:01;;;;;;;15.63;15.03;;;9.60;99.90;;;;;;5072947;28;20207;-66
2024/01/31 08:15:28;;;;;;;15.05;14.48;;;9.40;99.90;;;;;;5073935;28;20215;-65
2024/01/31 08:17:54;;;;;;;15.53;14.93;;;9.50;99.90;;;;;;5073507;28;20239;-67
2024/01/31 08:20:21;;;;;;;15.70;15.10;;;9.50;99.90;;;;;;5073235;28;20586;-64
2024/01/31 08:22:49;;;;;;;14.73;14.23;;;9.50;99.90;;;;;;5072911;28;20199;-66
2024/01/31 08:25:16;;;;;;;15.20;14.60;;;9.60;99.90;;;;;;5072858;28;20215;-64
2024/01/31 08:27:43;;;;;;;15.33;14.83;;;9.60;99.90;;;;;;5072757;28;20222;-66
2024/01/31 08:30:11;;;;;;;15.83;15.27;;;9.60;99.90;;;;;;5072548;28;20242;-65
2024/01/31 08:32:38;;;;;;;15.70;15.10;;;9.60;99.90;;;;;;5072967;28;20207;-67
2024/01/31 08:35:05;;;;;;;15.47;14.87;;;9.60;99.90;;;;;;5072799;28;20554;-65
2024/01/31 08:37:33;;;;;;;14.77;14.27;;;9.60;99.90;;;;;;5072418;28;20242;-65
2024/01/31 08:40:01;;;;;;;15.70;15.10;;;9.70;99.90;;;;;;5069792;28;20231;-66
2024/01/31 08:42:28;;;;;;;15.00;14.50;;;9.70;99.90;;;;;;5072299;28;20203;-66
2024/01/31 08:44:55;;;;;;;15.43;14.73;;;9.70;99.90;;;;;;5073588;28;20297;-65
2024/01/31 08:47:22;;;;;;;15.23;14.67;;;9.60;99.90;;;;;;5071321;28;20269;-66
2024/01/31 08:49:49;;;;;;;15.25;14.75;;;9.70;99.90;;;;;;5073215;28;20203;-66
2024/01/31 08:52:16;;;;;;;14.37;13.87;;;9.80;99.90;;;;;;5076132;28;20240;-66
2024/01/31 08:54:42;;;;;;;14.43;13.93;;;9.80;99.90;;;;;;5083160;28;20207;-66
2024/01/31 08:57:11;;;;;;;14.90;14.40;;;9.80;99.90;;;;;;5087610;28;20241;-65
2024/01/31 08:59:38;;;;;;;14.10;13.60;;;9.80;99.90;;;;;;5092605;28;20207;-66
2024/01/31 09:02:05;;;;;;;14.77;14.23;;;9.80;99.90;;;;;;5088379;28;20240;-65
2024/01/31 09:04:31;;;;;;;14.65;14.05;;;9.90;99.90;;;;;;5080837;28;20207;-66
2024/01/31 09:06:58;;;;;;;14.38;13.88;;;9.90;99.90;;;;;;5078802;28;20235;-66
2024/01/31 09:09:25;;;;;;;13.68;13.18;;;9.90;99.90;;;;;;5075623;28;20195;-66
2024/01/31 09:11:52;;;;;;;13.93;13.33;;;10.00;99.90;;;;;;5075446;28;20203;-66
2024/01/31 09:14:20;;;;;;;14.25;13.75;;;10.00;99.90;;;;;;5072574;28;20203;-66
2024/01/31 09:16:47;;;;;;;14.32;13.82;;;10.00;99.90;;;;;;5072804;28;20276;-65
2024/01/31 09:19:13;;;;;;;13.70;13.20;;;9.90;99.90;;;;;;5072511;28;20207;-66
2024/01/31 09:21:40;;;;;;;13.80;13.30;;;10.00;99.90;;;;;;5070011;28;20203;-67
2024/01/31 09:24:09;;;;;;;13.93;13.33;;;10.10;99.90;;;;;;5071273;28;20692;-65
2024/01/31 09:26:36;;;;;;;14.75;14.15;;;10.10;99.90;;;;;;5070143;28;20223;-66
2024/01/31 09:29:03;;;;;;;14.50;14.00;;;10.10;99.90;;;;;;5072051;28;20214;-65
2024/01/31 09:31:31;;;;;;;14.70;14.10;;;10.00;99.90;;;;;;5072371;28;20280;-65
2024/01/31 09:33:58;;;;;;;15.45;14.85;;;10.00;99.90;;;;;;5078506;28;20211;-65
2024/01/31 09:36:26;;;;;;;14.43;13.83;;;10.00;99.90;;;;;;5083769;28;20195;-64
2024/01/31 09:38:52;;;;;;;14.67;14.07;;;9.90;99.90;;;;;;5077787;28;20230;-66
2024/01/31 09:41:20;;;;;;;14.40;13.80;;;9.90;99.90;;;;;;5075272;28;20211;-66
2024/01/31 09:43:48;;;;;;;14.60;13.93;;;10.00;99.90;;;;;;5073569;28;20199;-66
2024/01/31 09:46:15;;;;;;;13.57;13.00;;;10.10;99.90;;;;;;5071823;28;20231;-65
2024/01/31 09:48:45;;;;;;;12.83;12.33;;;10.00;99.90;;;;;;5069084;28;20209;-65
2024/01/31 09:51:13;;;;;;;12.90;12.40;;;10.00;99.90;;;;;;5071959;28;20222;-67
2024/01/31 09:53:40;;;;;;;12.70;12.20;;;10.10;99.90;;;;;;5072010;28;20210;-65
2024/01/31 09:56:08;;;;;;;12.93;12.43;;;10.00;99.90;;;;;;5072225;28;20207;-66
2024/01/31 09:58:36;;;;;;;12.90;12.40;;;10.10;99.90;;;;;;5070142;28;20223;-65
2024/01/31 10:01:04;;;;;;;13.65;13.10;;;10.10;99.90;;;;;;5069017;28;20280;-67
2024/01/31 10:03:31;;;;;;;13.23;12.73;;;10.10;99.90;;;;;;5071430;28;20206;-67
2024/01/31 10:05:59;;;;;;;12.67;12.17;;;10.10;99.90;;;;;;5071796;28;20391;-66
2024/01/31 10:08:30;;;;;;;12.80;12.30;;;10.00;99.90;;;;;;5072059;28;20489;-66
2024/01/31 10:10:56;;;;;;;12.77;12.27;;;10.00;99.90;;;;;;5071423;28;20207;-66
2024/01/31 10:13:23;;;;;;;12.63;12.13;;;10.10;99.90;;;;;;5071330;28;20214;-65
2024/01/31 10:15:51;;;;;;;13.13;12.63;;;10.10;99.90;;;;;;5072988;28;20203;-65
2024/01/31 10:18:19;;;;;;;13.07;12.57;;;10.10;99.90;;;;;;5071884;28;20308;-65
2024/01/31 10:20:50;;;;;;;12.63;12.13;;;10.10;99.90;;;;;;5071841;28;20661;-66
2024/01/31 10:23:18;;;;;;;12.87;12.37;;;10.10;99.90;;;;;;5071535;28;20211;-65
2024/01/31 10:25:45;;;;;;;13.13;12.63;;;10.10;99.90;;;;;;5071497;28;20226;-64
2024/01/31 10:28:18;;;;;;;12.93;12.43;;;10.20;99.90;;;;;;5070374;28;20238;-65
2024/01/31 10:30:45;;;;;;;12.90;12.40;;;10.30;99.90;;;;;;5071871;28;20203;-66
2024/01/31 10:33:12;;;;;;;12.87;12.37;;;10.30;99.90;;;;;;5071236;28;20207;-65
2024/01/31 10:35:42;;;;;;;12.77;12.27;;;10.30;99.90;;;;;;5071563;28;20219;-66
2024/01/31 10:38:09;;;;;;;12.85;12.35;;;10.30;99.90;;;;;;5070798;28;20215;-67
2024/01/31 10:40:40;;;;;;;12.95;12.45;;;10.40;99.90;;;;;;5070810;28;20203;-64
2024/01/31 10:43:09;;;;;;;12.80;12.30;;;10.50;99.90;;;;;;5070023;28;20200;-66
2024/01/31 10:45:36;;;;;;;13.05;12.55;;;10.60;99.90;;;;;;5069882;28;20742;-64
2024/01/31 10:48:03;;;;;;;13.47;12.97;;;10.80;99.90;;;;;;5070524;28;20230;-66
2024/01/31 10:50:30;;;;;;;13.07;12.57;;;10.80;99.90;;;;;;5070813;28;20204;-65
2024/01/31 10:52:59;;;;;;;13.20;12.70;;;10.80;99.90;;;;;;5067958;28;20215;-65
2024/01/31 10:55:26;;;;;;;13.27;12.73;;;10.80;99.90;;;;;;5070371;28;20214;-66
2024/01/31 10:57:55;;;;;;;12.90;12.40;;;10.80;99.90;;;;;;5070360;28;20223;-66
2024/01/31 11:00:28;;;;;;;13.37;12.87;;;10.80;99.90;;;;;;5068771;28;20203;-67
2024/01/31 11:02:56;;;;;;;12.70;12.20;;;10.80;99.90;;;;;;5069488;28;20214;-66
2024/01/31 11:05:23;;;;;;;12.70;12.20;;;10.90;99.90;;;;;;5068699;28;20221;-65
2024/01/31 11:07:50;;;;;;;13.60;13.00;;;11.10;99.90;;;;;;5073256;28;20697;-65
2024/01/31 11:10:18;;;;;;;13.17;12.67;;;11.20;99.90;;;;;;5070571;28;20216;-65
2024/01/31 11:12:55;;;;;;;12.50;12.00;;;11.30;99.90;;;;;;5069896;28;20207;-66
2024/01/31 11:15:29;;;;;;;12.50;12.00;;;11.30;99.90;;;;;;5075642;28;20585;-66
2024/01/31 11:18:06;;;;;;;12.18;11.77;;;11.40;99.90;;;;;;5072276;28;20598;-66
2024/01/31 11:20:36;;;;;;;12.73;12.23;;;11.50;99.90;;;;;;5074464;28;20203;-65
2024/01/31 11:23:05;;;;;;;12.98;12.48;;;11.60;99.90;;;;;;5072354;28;20211;-65
2024/01/31 11:25:33;;;;;;;12.87;12.37;;;11.60;99.90;;;;;;5073104;28;20272;-65
2024/01/31 11:28:01;;;;;;;12.03;11.63;;;11.60;99.90;;;;;;5071978;28;20613;-66
2024/01/31 11:30:30;;;;;;;12.43;11.93;;;11.60;99.90;;;;;;5073988;28;20211;-66
2024/01/31 11:32:57;;;;;;;12.23;11.77;;;11.70;99.90;;;;;;5072215;28;20245;-67
2024/01/31 11:35:25;;;;;;;13.00;12.40;;;11.70;99.90;;;;;;5074268;28;20199;-66
2024/01/31 11:37:52;;;;;;;12.63;12.13;;;11.80;99.90;;;;;;5073764;28;20234;-66
2024/01/31 11:40:20;;;;;;;12.15;11.75;;;11.80;99.90;;;;;;5074192;28;20206;-65
2024/01/31 11:42:47;;;;;;;12.53;12.03;;;11.90;99.90;;;;;;5073295;28;20669;-65
2024/01/31 11:45:14;;;;;;;12.68;12.18;;;11.90;99.90;;;;;;5073946;28;20626;-65
2024/01/31 11:47:42;;;;;;;12.30;11.90;;;11.90;99.90;;;;;;5073867;28;20223;-65
2024/01/31 11:50:10;;;;;;;12.30;11.80;;;12.00;99.90;;;;;;5073886;28;20214;-65
2024/01/31 11:52:37;;;;;;;12.00;11.50;;;12.10;99.90;;;;;;5074168;28;20199;-64
2024/01/31 11:55:06;;;;;;;11.60;11.20;;;12.10;99.90;;;;;;5074231;28;20262;-65
2024/01/31 11:57:33;;;;;;;12.30;11.90;;;12.20;99.90;;;;;;5073712;28;20305;-65
2024/01/31 12:00:02;;;;;;;12.27;11.77;;;12.20;99.90;;;;;;5074137;28;20575;-64
2024/01/31 12:02:29;;;;;;;12.03;11.63;;;12.20;99.90;;;;;;5073600;28;20692;-65
2024/01/31 12:04:57;;;;;;;12.27;11.77;;;12.30;99.90;;;;;;5071731;28;20226;-65
2024/01/31 12:07:24;;;;;;;12.20;11.80;;;12.20;99.90;;;;;;5070978;28;20218;-65
2024/01/31 12:09:51;;;;;;;12.03;11.63;;;12.30;99.90;;;;;;5071609;28;20215;-65
2024/01/31 12:12:18;;;;;;;12.90;12.40;;;12.30;99.90;;;;;;5071218;28;20300;-65
2024/01/31 12:14:45;;;;;;;12.67;12.17;;;12.30;99.90;;;;;;5072468;28;20587;-65
2024/01/31 12:17:19;;;;;;;13.00;12.50;;;12.30;99.90;;;;;;5072998;28;20281;-64
2024/01/31 12:19:46;;;;;;;11.80;11.40;;;12.30;99.90;;;;;;5070842;28;20199;-66
2024/01/31 12:22:15;;;;;;;13.00;12.50;;;12.30;99.90;;;;;;5073173;28;20210;-67
2024/01/31 12:24:41;;;;;;;12.07;11.68;;;12.10;99.90;;;;;;5073386;28;20200;-67
2024/01/31 12:27:08;;;;;;;12.23;11.73;;;11.90;99.90;;;;;;5074076;28;20231;-65
2024/01/31 12:29:36;;;;;;;12.40;12.00;;;11.90;99.90;;;;;;5073265;28;20226;-65
2024/01/31 12:32:03;;;;;;;12.73;12.23;;;11.80;99.90;;;;;;5073383;28;20237;-66
2024/01/31 12:34:29;;;;;;;13.30;12.80;;;11.80;99.90;;;;;;5072143;28;20249;-65